createdAt,value
2019-04-04T00:02:00.272Z,45.20
2019-04-04T00:04:26.916Z,46.37
2019-04-04T00:06:53.604Z,49.50
2019-04-04T00:09:20.323Z,48.33
2019-04-04T00:11:47.029Z,47.90
2019-04-04T00:14:14.691Z,47.87
2019-04-04T00:16:41.639Z,47.50
2019-04-04T00:19:08.300Z,49.37
2019-04-04T00:21:35.628Z,48.13
2019-04-04T00:24:02.626Z,49.90
2019-04-04T00:26:29.459Z,48.67
2019-04-04T00:28:56.198Z,51.20
2019-04-04T00:31:23.157Z,48.83
2019-04-04T00:33:50.650Z,48.37
2019-04-04T00:36:18.110Z,52.00
2019-04-04T00:38:45.570Z,52.43
2019-04-04T00:41:12.983Z,49.67
2019-04-04T00:43:40.891Z,48.87
2019-04-04T00:46:08.138Z,49.97
2019-04-04T00:48:35.910Z,49.67
2019-04-04T00:51:07.698Z,52.03
2019-04-04T00:53:34.914Z,52.30
2019-04-04T00:56:02.274Z,51.23
2019-04-04T00:58:28.923Z,52.83
2019-04-04T01:00:55.831Z,49.50
2019-04-04T01:03:23.419Z,53.60
2019-04-04T01:05:50.771Z,53.17
2019-04-04T01:08:17.854Z,50.37
2019-04-04T01:10:44.867Z,46.83
2019-04-04T01:13:11.847Z,50.83
2019-04-04T01:15:38.854Z,46.37
2019-04-04T01:18:06.193Z,46.37
2019-04-04T01:20:34.178Z,47.80
2019-04-04T01:23:01.122Z,44.80
2019-04-04T01:25:28.073Z,46.47
2019-04-04T01:27:55.115Z,46.47
2019-04-04T01:30:22.887Z,46.43
2019-04-04T01:32:50.135Z,45.53
2019-04-04T01:35:17.494Z,45.50
2019-04-04T01:37:44.147Z,48.10
2019-04-04T01:40:11.067Z,49.10
2019-04-04T01:42:39.012Z,44.77
2019-04-04T01:45:06.702Z,46.40
2019-04-04T01:47:34.771Z,47.70
2019-04-04T01:50:01.716Z,47.43
2019-04-04T01:52:29.275Z,45.53
2019-04-04T01:54:56.627Z,40.70
2019-04-04T01:57:23.604Z,42.90
2019-04-04T01:59:54.919Z,45.97
2019-04-04T02:02:22.000Z,46.20
2019-04-04T02:04:48.918Z,45.13
2019-04-04T02:07:16.575Z,45.40
2019-04-04T02:09:43.594Z,46.47
2019-04-04T02:12:10.570Z,44.63
2019-04-04T02:14:38.843Z,49.13
2019-04-04T02:17:06.298Z,45.70
2019-04-04T02:19:33.249Z,46.07
2019-04-04T02:22:00.987Z,44.60
2019-04-04T02:24:28.011Z,45.73
2019-04-04T02:26:54.631Z,50.27
2019-04-04T02:29:21.251Z,49.07
2019-04-04T02:31:53.563Z,46.13
2019-04-04T02:34:20.344Z,47.03
2019-04-04T02:36:49.184Z,45.20
2019-04-04T02:39:16.487Z,46.53
2019-04-04T02:41:47.500Z,48.20
2019-04-04T02:44:11.673Z,43.43
2019-04-04T02:46:38.656Z,43.90
2019-04-04T02:49:05.607Z,48.07
2019-04-04T02:51:34.516Z,46.60
2019-04-04T02:54:02.381Z,46.43
2019-04-04T02:56:29.703Z,49.57
2019-04-04T02:58:56.651Z,48.80
2019-04-04T03:01:23.903Z,49.00
2019-04-04T03:03:50.946Z,46.27
2019-04-04T03:06:18.405Z,45.07
2019-04-04T03:08:45.375Z,47.07
2019-04-04T03:11:12.013Z,47.30
2019-04-04T03:13:39.344Z,47.43
2019-04-04T03:16:06.532Z,50.00
2019-04-04T03:18:34.729Z,49.80
2019-04-04T03:21:03.045Z,45.63
2019-04-04T03:23:33.840Z,47.07
2019-04-04T03:26:00.745Z,48.77
2019-04-04T03:28:31.506Z,48.17
2019-04-04T03:31:02.559Z,48.80
2019-04-04T03:33:31.290Z,48.17
2019-04-04T03:35:59.888Z,48.87
2019-04-04T03:38:25.583Z,47.37
2019-04-04T03:40:57.447Z,48.93
2019-04-04T03:43:21.727Z,46.97
2019-04-04T03:45:48.885Z,48.43
2019-04-04T03:48:17.610Z,48.77
2019-04-04T03:50:44.268Z,51.53
2019-04-04T03:53:16.367Z,51.87
2019-04-04T03:55:40.016Z,49.10
2019-04-04T03:58:07.016Z,50.13
2019-04-04T04:00:33.660Z,48.77
2019-04-04T04:03:00.324Z,49.10
2019-04-04T04:05:28.147Z,54.87
2019-04-04T04:07:54.890Z,54.90
2019-04-04T04:10:21.529Z,52.00
2019-04-04T04:12:49.972Z,52.20
2019-04-04T04:15:16.667Z,51.57
2019-04-04T04:17:45.584Z,55.20
2019-04-04T04:20:12.145Z,52.23
2019-04-04T04:22:38.787Z,51.37
2019-04-04T04:25:05.441Z,52.63
2019-04-04T04:27:32.196Z,53.13
2019-04-04T04:30:00.116Z,57.63
2019-04-04T04:32:27.359Z,57.53
2019-04-04T04:34:54.033Z,54.20
2019-04-04T04:37:21.112Z,61.00
2019-04-04T04:39:47.921Z,57.83
2019-04-04T04:42:14.865Z,62.40
2019-04-04T04:44:41.804Z,60.20
2019-04-04T04:47:08.443Z,60.23
2019-04-04T04:49:35.521Z,59.80
2019-04-04T04:52:03.044Z,59.20
2019-04-04T04:54:29.991Z,60.20
2019-04-04T04:56:57.034Z,57.63
2019-04-04T04:59:24.430Z,58.50
2019-04-04T05:01:51.367Z,58.60
2019-04-04T05:04:18.782Z,57.80
2019-04-04T05:06:46.039Z,61.80
2019-04-04T05:09:13.974Z,59.10
2019-04-04T05:11:42.387Z,56.57
2019-04-04T05:14:09.639Z,55.80
2019-04-04T05:16:37.908Z,52.97
2019-04-04T05:19:05.062Z,53.87
2019-04-04T05:21:34.538Z,53.20
2019-04-04T05:24:01.503Z,53.30
2019-04-04T05:26:29.178Z,54.40
2019-04-04T05:28:57.157Z,54.17
2019-04-04T05:31:25.633Z,50.97
2019-04-04T05:33:54.531Z,53.47
2019-04-04T05:36:21.510Z,51.33
2019-04-04T05:38:48.919Z,51.57
2019-04-04T05:41:16.610Z,53.13
2019-04-04T05:43:43.983Z,51.27
2019-04-04T05:46:10.735Z,54.10
2019-04-04T05:48:38.851Z,52.30
2019-04-04T05:51:05.921Z,50.23
2019-04-04T05:53:35.174Z,53.20
2019-04-04T05:56:01.856Z,49.10
2019-04-04T05:58:29.543Z,50.03
2019-04-04T06:00:57.697Z,48.87
2019-04-04T06:03:25.119Z,45.57
2019-04-04T06:05:52.385Z,48.40
2019-04-04T06:08:19.008Z,50.73
2019-04-04T06:10:45.667Z,47.77
2019-04-04T06:13:12.295Z,49.73
2019-04-04T06:15:39.339Z,51.37
2019-04-04T06:18:06.352Z,52.07
2019-04-04T06:20:32.985Z,50.13
2019-04-04T06:23:00.754Z,51.57
2019-04-04T06:25:34.055Z,52.70
2019-04-04T06:27:58.766Z,50.37
2019-04-04T06:30:25.382Z,48.90
2019-04-04T06:32:52.911Z,49.17
2019-04-04T06:35:19.539Z,49.03
2019-04-04T06:37:46.854Z,49.90
2019-04-04T06:40:13.807Z,47.73
2019-04-04T06:42:42.279Z,48.60
2019-04-04T06:45:09.012Z,49.23
2019-04-04T06:47:35.763Z,49.20
2019-04-04T06:50:02.910Z,49.07
2019-04-04T06:52:29.947Z,46.53
2019-04-04T06:54:57.362Z,47.47
2019-04-04T06:57:24.734Z,49.23
2019-04-04T06:59:51.426Z,49.63
2019-04-04T07:02:18.142Z,45.73
2019-04-04T07:04:44.772Z,49.40
2019-04-04T07:07:12.756Z,45.40
2019-04-04T07:09:39.795Z,46.43
2019-04-04T07:12:07.147Z,43.90
2019-04-04T07:14:45.186Z,44.03
2019-04-04T07:17:02.577Z,46.30
2019-04-04T07:19:29.763Z,43.90
2019-04-04T07:21:56.678Z,44.07
2019-04-04T07:24:23.725Z,43.37
2019-04-04T07:26:52.723Z,40.53
2019-04-04T07:29:20.171Z,37.00
2019-04-04T07:31:46.799Z,38.13
2019-04-04T07:34:13.741Z,38.40
2019-04-04T07:36:42.207Z,36.17
2019-04-04T07:39:09.307Z,33.03
2019-04-04T07:41:39.945Z,34.53
2019-04-04T07:44:06.083Z,33.67
2019-04-04T07:46:32.691Z,30.60
2019-04-04T07:48:59.315Z,31.23
2019-04-04T07:51:25.964Z,27.70
2019-04-04T07:53:52.587Z,27.13
2019-04-04T07:56:19.563Z,25.63
2019-04-04T07:58:46.491Z,26.03
2019-04-04T08:01:13.214Z,27.43
2019-04-04T08:03:40.299Z,26.90
2019-04-04T08:06:07.233Z,27.47
2019-04-04T08:08:35.075Z,25.90
2019-04-04T08:11:02.534Z,27.50
2019-04-04T08:13:30.157Z,25.87
2019-04-04T08:15:56.863Z,26.70
2019-04-04T08:18:23.504Z,24.70
2019-04-04T08:20:50.507Z,22.17
2019-04-04T08:23:17.161Z,24.57
2019-04-04T08:25:43.779Z,25.07
2019-04-04T08:28:10.779Z,25.87
2019-04-04T08:30:37.521Z,24.97
2019-04-04T08:33:04.494Z,20.37
2019-04-04T08:35:31.883Z,20.10
2019-04-04T08:37:59.839Z,21.27
2019-04-04T08:40:27.318Z,18.70
2019-04-04T08:42:53.986Z,19.37
2019-04-04T08:45:20.657Z,17.73
2019-04-04T08:47:47.632Z,18.03
2019-04-04T08:50:14.575Z,18.37
2019-04-04T08:52:42.235Z,17.70
2019-04-04T08:55:09.184Z,17.77
2019-04-04T08:57:36.543Z,18.37
2019-04-04T09:00:04.811Z,18.10
2019-04-04T09:02:32.944Z,19.07
2019-04-04T09:05:11.342Z,21.40
2019-04-04T09:07:28.927Z,19.87
2019-04-04T09:09:55.876Z,21.90
2019-04-04T09:12:24.049Z,21.33
2019-04-04T09:14:50.992Z,24.03
2019-04-04T09:17:17.971Z,25.70
2019-04-04T09:19:46.317Z,24.23
2019-04-04T09:22:13.259Z,24.10
2019-04-04T09:24:40.511Z,27.33
2019-04-04T09:27:07.451Z,27.00
2019-04-04T09:29:34.582Z,28.23
2019-04-04T09:32:02.570Z,30.30
2019-04-04T09:34:29.819Z,31.23
2019-04-04T09:36:56.734Z,35.43
2019-04-04T09:39:23.350Z,34.43
2019-04-04T09:41:50.012Z,37.00
2019-04-04T09:44:16.627Z,35.47
2019-04-04T09:46:43.332Z,34.93
2019-04-04T09:49:12.970Z,31.30
2019-04-04T09:51:39.979Z,33.60
2019-04-04T09:54:06.591Z,30.73
2019-04-04T09:56:33.214Z,31.70
2019-04-04T09:59:00.218Z,34.30
2019-04-04T10:01:26.849Z,35.13
2019-04-04T10:03:53.783Z,34.67
2019-04-04T10:06:22.268Z,31.93
2019-04-04T10:08:49.201Z,32.67
2019-04-04T10:11:15.946Z,34.40
2019-04-04T10:13:42.887Z,35.03
2019-04-04T10:16:09.527Z,33.27
2019-04-04T10:18:36.783Z,36.30
2019-04-04T10:21:11.832Z,36.90
2019-04-04T10:23:32.664Z,36.20
2019-04-04T10:25:59.863Z,37.90
2019-04-04T10:28:26.833Z,35.60
2019-04-04T10:30:53.755Z,41.50
2019-04-04T10:33:20.595Z,37.80
2019-04-04T10:35:47.480Z,38.83
2019-04-04T10:38:14.126Z,36.27
2019-04-04T10:40:40.879Z,39.00
2019-04-04T10:43:07.860Z,39.30
2019-04-04T10:45:34.484Z,39.37
2019-04-04T10:48:01.441Z,38.77
2019-04-04T10:50:28.803Z,39.00
2019-04-04T10:52:55.980Z,40.53
2019-04-04T10:55:22.895Z,38.50
2019-04-04T10:57:49.737Z,40.00
2019-04-04T11:00:19.450Z,42.07
2019-04-04T11:02:46.516Z,40.43
2019-04-04T11:05:13.951Z,45.77
2019-04-04T11:07:41.304Z,43.53
2019-04-04T11:10:08.759Z,42.17
2019-04-04T11:12:36.016Z,41.97
2019-04-04T11:15:03.261Z,40.30
2019-04-04T11:17:30.270Z,41.23
2019-04-04T11:19:56.904Z,42.07
2019-04-04T11:22:24.426Z,42.63
2019-04-04T11:24:51.664Z,39.47
2019-04-04T11:27:18.296Z,40.57
2019-04-04T11:29:44.899Z,41.87
2019-04-04T11:32:14.441Z,40.70
2019-04-04T11:34:52.593Z,41.30
2019-04-04T11:37:10.887Z,42.50
2019-04-04T11:39:38.351Z,44.23
2019-04-04T11:42:07.447Z,48.50
2019-04-04T11:44:34.395Z,50.80
2019-04-04T11:47:01.456Z,49.40
2019-04-04T11:49:28.253Z,50.13
2019-04-04T11:51:55.322Z,50.40
2019-04-04T11:54:23.088Z,46.80
2019-04-04T11:56:50.248Z,49.30
2019-04-04T11:59:17.692Z,48.90
2019-04-04T12:01:45.311Z,49.03
2019-04-04T12:04:12.299Z,46.50
2019-04-04T12:06:39.528Z,51.10
2019-04-04T12:09:06.803Z,48.57
2019-04-04T12:11:34.039Z,54.27
2019-04-04T12:14:01.103Z,50.10
2019-04-04T12:16:28.835Z,55.87
2019-04-04T12:18:55.455Z,59.23
2019-04-04T12:21:22.474Z,57.27
2019-04-04T12:23:51.341Z,56.43
2019-04-04T12:26:17.624Z,53.83
2019-04-04T12:28:45.024Z,53.97
2019-04-04T12:31:11.935Z,55.10
2019-04-04T12:33:38.572Z,52.97
2019-04-04T12:36:05.379Z,53.43
2019-04-04T12:38:31.999Z,54.03
2019-04-04T12:40:58.931Z,53.90
2019-04-04T12:43:25.882Z,55.50
2019-04-04T12:45:52.824Z,54.37
2019-04-04T12:48:19.551Z,52.40
2019-04-04T12:50:48.421Z,54.17
2019-04-04T12:53:15.446Z,56.30
2019-04-04T12:55:42.086Z,52.50
2019-04-04T12:58:10.914Z,55.77
2019-04-04T13:00:37.279Z,54.20
2019-04-04T13:03:03.915Z,56.03
2019-04-04T13:05:31.662Z,52.60
2019-04-04T13:07:58.293Z,52.47
2019-04-04T13:10:32.839Z,54.73
2019-04-04T13:12:54.299Z,53.07
2019-04-04T13:15:23.051Z,54.37
2019-04-04T13:17:50.570Z,52.93
2019-04-04T13:20:17.635Z,54.70
2019-04-04T13:22:44.771Z,53.00
2019-04-04T13:25:11.416Z,51.53
2019-04-04T13:27:39.544Z,51.70
2019-04-04T13:30:08.372Z,55.57
2019-04-04T13:32:35.005Z,55.53
2019-04-04T13:35:04.855Z,56.50
2019-04-04T13:37:30.183Z,53.27
2019-04-04T13:39:57.227Z,51.47
2019-04-04T13:42:24.229Z,52.00
2019-04-04T13:44:52.872Z,52.67
2019-04-04T13:47:19.779Z,54.17
2019-04-04T13:49:46.456Z,52.40
2019-04-04T13:52:13.471Z,48.93
2019-04-04T13:54:40.226Z,51.77
2019-04-04T13:57:06.868Z,50.50
2019-04-04T13:59:33.573Z,50.70
2019-04-04T14:02:00.204Z,51.37
2019-04-04T14:04:27.134Z,47.90
2019-04-04T14:06:53.763Z,51.03
2019-04-04T14:09:20.714Z,52.40
2019-04-04T14:11:47.663Z,50.70
2019-04-04T14:14:14.612Z,53.73
2019-04-04T14:16:41.251Z,52.97
2019-04-04T14:19:08.603Z,50.80
2019-04-04T14:21:35.961Z,50.23
2019-04-04T14:24:13.091Z,51.70
2019-04-04T14:26:32.093Z,51.93
2019-04-04T14:29:03.708Z,50.10
2019-04-04T14:31:30.691Z,51.73
2019-04-04T14:33:57.647Z,50.43
2019-04-04T14:36:24.724Z,51.43
2019-04-04T14:38:51.346Z,52.50
2019-04-04T14:41:18.508Z,52.13
2019-04-04T14:43:45.226Z,53.90
2019-04-04T14:46:12.208Z,53.07
2019-04-04T14:48:42.186Z,50.50
2019-04-04T14:51:07.407Z,48.57
2019-04-04T14:53:35.495Z,52.10
2019-04-04T14:56:02.809Z,54.37
2019-04-04T14:58:30.789Z,50.73
2019-04-04T15:00:58.847Z,50.80
2019-04-04T15:03:25.795Z,48.00
2019-04-04T15:05:52.735Z,50.77
2019-04-04T15:08:19.688Z,53.80
2019-04-04T15:10:47.062Z,47.23
2019-04-04T15:13:15.217Z,54.20
2019-04-04T15:16:01.723Z,50.40
2019-04-04T15:18:29.079Z,52.40
2019-04-04T15:20:57.040Z,51.40
2019-04-04T15:23:24.195Z,49.27
2019-04-04T15:25:51.202Z,49.57
2019-04-04T15:28:17.840Z,48.10
2019-04-04T15:30:45.235Z,50.53
2019-04-04T15:33:12.581Z,50.80
2019-04-04T15:35:39.856Z,47.67
2019-04-04T15:38:09.570Z,49.00
2019-04-04T15:40:36.532Z,45.70
2019-04-04T15:43:03.369Z,47.67
2019-04-04T15:45:30.702Z,47.70
2019-04-04T15:47:57.867Z,48.73
2019-04-04T15:50:24.883Z,52.37
2019-04-04T15:52:52.251Z,91.90
2019-04-04T15:55:19.179Z,48.30
2019-04-04T15:57:46.450Z,53.87
2019-04-04T16:00:15.221Z,52.77
2019-04-04T16:02:41.867Z,51.60
2019-04-04T16:05:08.514Z,49.27
2019-04-04T16:07:35.542Z,50.70
2019-04-04T16:10:03.414Z,48.40
2019-04-04T16:12:30.871Z,50.47
2019-04-04T16:14:57.827Z,49.53
2019-04-04T16:17:24.855Z,47.50
2019-04-04T16:19:52.315Z,51.80
2019-04-04T16:22:19.262Z,51.13
2019-04-04T16:24:46.339Z,47.40
2019-04-04T16:27:12.996Z,49.73
2019-04-04T16:29:40.507Z,48.77
2019-04-04T16:32:07.507Z,48.33
2019-04-04T16:34:36.447Z,47.63
2019-04-04T16:37:03.204Z,47.70
2019-04-04T16:39:30.539Z,46.73
2019-04-04T16:42:02.529Z,44.67
2019-04-04T16:44:26.408Z,44.37
2019-04-04T16:46:53.059Z,48.67
2019-04-04T16:49:20.166Z,47.90
2019-04-04T16:51:47.252Z,49.47
2019-04-04T16:54:14.556Z,47.00
2019-04-04T16:56:41.568Z,48.87
2019-04-04T16:59:08.258Z,45.13
2019-04-04T17:01:35.807Z,44.97
2019-04-04T17:04:03.506Z,43.13
2019-04-04T17:06:31.871Z,44.97
2019-04-04T17:08:59.739Z,42.67
2019-04-04T17:11:26.471Z,41.63
2019-04-04T17:13:54.781Z,42.87
2019-04-04T17:16:21.550Z,44.23
2019-04-04T17:18:49.063Z,43.00
2019-04-04T17:21:16.276Z,45.90
2019-04-04T17:23:43.399Z,42.47
2019-04-04T17:26:10.375Z,41.17
2019-04-04T17:28:37.578Z,43.13
2019-04-04T17:31:06.961Z,43.87
2019-04-04T17:33:33.000Z,44.07
2019-04-04T17:36:01.310Z,42.70
2019-04-04T17:38:29.539Z,43.20
2019-04-04T17:40:58.144Z,42.57
2019-04-04T17:43:25.844Z,42.37
2019-04-04T17:45:52.951Z,42.67
2019-04-04T17:48:21.326Z,44.00
2019-04-04T17:50:48.434Z,43.13
2019-04-04T17:53:15.566Z,43.40
2019-04-04T17:55:42.446Z,41.30
2019-04-04T17:58:09.327Z,40.33
2019-04-04T18:00:36.153Z,41.60
2019-04-04T18:03:03.387Z,40.50
2019-04-04T18:05:30.807Z,38.40
2019-04-04T18:07:58.163Z,38.10
2019-04-04T18:10:25.242Z,39.47
2019-04-04T18:12:51.967Z,36.43
2019-04-04T18:15:20.951Z,38.10
2019-04-04T18:17:47.967Z,39.20
2019-04-04T18:20:14.795Z,41.70
2019-04-04T18:22:41.878Z,37.20
2019-04-04T18:25:08.807Z,39.27
2019-04-04T18:27:36.286Z,40.50
2019-04-04T18:30:03.874Z,39.47
2019-04-04T18:32:31.091Z,37.37
2019-04-04T18:34:58.343Z,35.53
2019-04-04T18:37:25.713Z,37.90
2019-04-04T18:39:53.263Z,35.97
2019-04-04T18:42:20.257Z,39.80
2019-04-04T18:44:47.771Z,37.50
2019-04-04T18:47:15.027Z,36.87
2019-04-04T18:49:41.876Z,39.87
2019-04-04T18:52:09.209Z,38.30
2019-04-04T18:54:37.064Z,38.23
2019-04-04T18:57:05.078Z,36.50
2019-04-04T18:59:32.319Z,37.27
2019-04-04T19:01:59.048Z,41.67
2019-04-04T19:04:25.700Z,38.57
2019-04-04T19:06:53.139Z,40.30
2019-04-04T19:09:20.099Z,39.00
2019-04-04T19:11:46.737Z,39.27
2019-04-04T19:14:13.584Z,38.67
2019-04-04T19:16:41.309Z,40.13
2019-04-04T19:19:09.457Z,41.33
2019-04-04T19:21:37.303Z,40.37
2019-04-04T19:24:04.359Z,37.93
2019-04-04T19:26:31.319Z,36.53
2019-04-04T19:28:57.982Z,38.83
2019-04-04T19:31:24.621Z,38.67
2019-04-04T19:33:51.311Z,43.10
2019-04-04T19:36:20.255Z,42.17
2019-04-04T19:38:46.912Z,42.33
2019-04-04T19:41:14.023Z,45.73
2019-04-04T19:43:40.702Z,46.57
2019-04-04T19:46:09.308Z,46.00
2019-04-04T19:48:36.025Z,49.50
2019-04-04T19:51:03.135Z,47.53
2019-04-04T19:53:29.759Z,49.30
2019-04-04T19:55:56.418Z,48.30
2019-04-04T19:58:23.412Z,48.60
2019-04-04T20:00:50.739Z,48.27
2019-04-04T20:03:17.460Z,46.73
2019-04-04T20:05:44.785Z,49.40
2019-04-04T20:08:13.172Z,50.27
2019-04-04T20:10:39.822Z,51.07
2019-04-04T20:13:06.451Z,47.83
2019-04-04T20:15:33.935Z,50.60
2019-04-04T20:18:00.672Z,50.47
2019-04-04T20:20:27.328Z,48.70
2019-04-04T20:22:53.970Z,48.43
2019-04-04T20:25:20.623Z,50.63
2019-04-04T20:27:54.575Z,53.17
2019-04-04T20:30:17.955Z,52.00
2019-04-04T20:32:44.923Z,50.63
2019-04-04T20:35:12.047Z,50.03
2019-04-04T20:37:38.947Z,51.07
2019-04-04T20:40:06.357Z,47.57
2019-04-04T20:42:34.089Z,50.97
2019-04-04T20:45:00.715Z,49.47
2019-04-04T20:47:28.135Z,46.53
2019-04-04T20:49:55.044Z,48.40
2019-04-04T20:52:22.119Z,50.60
2019-04-04T20:54:48.747Z,51.10
2019-04-04T20:57:15.759Z,51.10
2019-04-04T20:59:42.748Z,50.47
2019-04-04T21:02:10.688Z,49.00
2019-04-04T21:04:40.409Z,50.27
2019-04-04T21:07:07.360Z,51.00
2019-04-04T21:09:34.399Z,51.20
2019-04-04T21:12:01.486Z,49.17
2019-04-04T21:14:28.115Z,54.70
2019-04-04T21:16:55.126Z,50.00
2019-04-04T21:19:22.191Z,54.23
2019-04-04T21:21:49.533Z,54.73
2019-04-04T21:24:16.499Z,50.57
2019-04-04T21:26:43.451Z,54.73
2019-04-04T21:29:10.087Z,51.33
2019-04-04T21:31:37.864Z,52.33
2019-04-04T21:34:05.491Z,52.33
2019-04-04T21:36:32.537Z,52.17
2019-04-04T21:38:59.989Z,53.67
2019-04-04T21:41:27.344Z,50.33
2019-04-04T21:43:54.289Z,51.77
2019-04-04T21:46:20.931Z,51.77
2019-04-04T21:48:48.288Z,48.13
2019-04-04T21:51:15.839Z,56.13
2019-04-04T21:53:42.786Z,52.70
2019-04-04T21:56:09.893Z,53.63
2019-04-04T21:58:36.577Z,55.23
2019-04-04T22:01:03.660Z,54.67
2019-04-04T22:03:32.000Z,50.63
2019-04-04T22:05:58.943Z,52.03
2019-04-04T22:08:25.891Z,52.43
2019-04-04T22:10:53.140Z,54.23
2019-04-04T22:13:20.267Z,51.07
2019-04-04T22:15:47.539Z,52.77
2019-04-04T22:18:14.219Z,52.60
2019-04-04T22:20:41.165Z,51.03
2019-04-04T22:23:07.906Z,53.80
2019-04-04T22:25:34.691Z,51.07
2019-04-04T22:28:01.357Z,50.60
2019-04-04T22:30:28.315Z,52.87
2019-04-04T22:32:56.057Z,48.43
2019-04-04T22:35:22.690Z,50.40
2019-04-04T22:37:51.142Z,51.27
2019-04-04T22:40:17.777Z,51.53
2019-04-04T22:42:44.812Z,49.50
2019-04-04T22:45:13.054Z,50.10
2019-04-04T22:47:39.721Z,50.20
2019-04-04T22:50:06.925Z,49.53
2019-04-04T22:52:33.557Z,50.37
2019-04-04T22:55:00.183Z,52.47
2019-04-04T22:57:27.663Z,50.30
2019-04-04T22:59:54.622Z,50.57
2019-04-04T23:02:21.539Z,48.20
2019-04-04T23:04:48.791Z,46.67
2019-04-04T23:07:15.736Z,50.03
2019-04-04T23:09:43.366Z,45.97
2019-04-04T23:12:10.751Z,49.27
2019-04-04T23:14:48.150Z,48.70
2019-04-04T23:17:07.303Z,46.47
2019-04-04T23:19:36.095Z,51.20
2019-04-04T23:22:03.547Z,50.20
2019-04-04T23:24:31.931Z,47.47
2019-04-04T23:26:59.180Z,50.60
2019-04-04T23:29:26.083Z,48.10
2019-04-04T23:31:53.380Z,49.17
2019-04-04T23:34:20.763Z,47.97
2019-04-04T23:36:49.111Z,44.87
2019-04-04T23:39:16.463Z,47.23
2019-04-04T23:41:43.131Z,45.17
2019-04-04T23:44:09.768Z,44.63
2019-04-04T23:46:36.421Z,43.23
2019-04-04T23:49:03.451Z,43.67
2019-04-04T23:51:30.108Z,44.37
2019-04-04T23:53:58.535Z,42.77
2019-04-04T23:56:25.186Z,42.43
2019-04-04T23:58:51.816Z,42.53
